NCAR-RAP Real-Time Weather Data

Output produced by METARs form (23 February 2020  01:36 UTC)
found at http://weather.rap.ucar.edu/surface/
 
KCHA 230053Z 00000KT 10SM SCT250 08/M02 A3033 RMK AO2 SLP274 T00781017 $
KCHA 222353Z 00000KT 10SM SCT250 10/M04 A3032 RMK AO2 SLP271 T01001039 10133 20089 56012 $
KCHA 222253Z 11004KT 10SM SCT250 12/M06 A3033 RMK AO2 SLP272 T01221056 $
KCHA 222153Z 00000KT 10SM SCT250 13/M06 A3033 RMK AO2 SLP274 T01331061 $
KCHA 222053Z 13005KT 10SM SCT250 13/M08 A3036 RMK AO2 SLP282 T01281078 56032 $
KCHA 221953Z 00000KT 10SM SCT250 12/M07 A3038 RMK AO2 SLP290 T01221072 $
KCHA 221853Z 14003KT 10SM BKN250 11/M11 A3041 RMK AO2 SLP302 T01061106 $
KCHA 221753Z 22003KT 10SM SCT250 09/M05 A3045 RMK AO2 SLP315 I6000 T00891050 10094 21033 58021 $
KCHA 221653Z 00000KT 10SM SCT250 08/M04 A3048 RMK AO2 SLP327 T00781044 $
KCHA 221553Z 00000KT 10SM FEW250 04/M03 A3051 RMK AO2 SLP335 T00441033 $
KCHA 221453Z 00000KT 10SM FEW200 02/M03 A3052 RMK AO2 SLP338 I3000 T00221028 51008 $
KCHA 221353Z 00000KT 10SM FEW200 M01/M03 A3052 RMK AO2 SLP339 T10111033 $
KCHA 221253Z 00000KT 10SM FEW200 M03/M04 A3051 RMK AO2 SLP336 I1000 T10331044 $
KCHA 221153Z 00000KT 10SM CLR M03/M05 A3049 RMK AO2 SLP331 I1000 I6000 T10281050 11006 21033 53012 $
KCHA 221053Z 00000KT 10SM CLR M03/M04 A3048 RMK AO2 SLP326 I1000 T10281044 $
KCHA 220953Z 00000KT 10SM CLR M03/M04 A3046 RMK AO2 SLP317 T10281044 $
KCHA 220853Z 21003KT 10SM CLR M02/M04 A3046 RMK AO2 SLP317 T10221039 58008 $
KCHA 220753Z 00000KT 10SM CLR M02/M04 A3047 RMK AO2 SLP322 T10171044 $
KCHA 220653Z 00000KT 10SM CLR M01/M04 A3047 RMK AO2 SLP323 T10111039 $
KCHA 220553Z 00000KT 10SM CLR M01/M04 A3048 RMK AO2 SLP326 T10061039 10050 21011 56008 $
KCHA 220453Z 00000KT 10SM CLR M01/M04 A3048 RMK AO2 SLP328 LAST T10111039 400721017 $
KCHA 220353Z 00000KT 10SM CLR 00/M04 A3050 RMK AO2 SLP334 T00001044 $
KCHA 220253Z 00000KT 10SM CLR 02/M07 A3051 RMK AO2 SLP335 T00171067 50001 $
KCHA 220153Z 04004KT 10SM CLR 03/M07 A3051 RMK AO2 SLP336 T00331072 $
KCHA 220053Z 01004KT 10SM CLR 04/M09 A3052 RMK AO2 SLP341 T00391094 $
KCHA 212353Z 03007KT 10SM CLR 05/M10 A3050 RMK AO2 SLP334 T00501100 10072 20044 53002 $
KCHA 212253Z 36010KT 10SM CLR 06/M11 A3049 RMK AO2 SLP330 T00611106 $
KCHA 212153Z 01009KT 10SM CLR 07/M09 A3049 RMK AO2 SLP328 T00671094 $
KCHA 212053Z 01012KT 10SM CLR 07/M08 A3050 RMK AO2 SLP331 T00671078 56023 $
KCHA 211953Z 35011KT 10SM CLR 06/M07 A3051 RMK AO2 SLP336 T00611072 $
KCHA 211853Z 35009KT 10SM CLR 06/M06 A3053 RMK AO2 SLP344 T00561056 $
KCHA 211753Z 36009KT 10SM CLR 04/M06 A3057 RMK AO2 SLP354 I6265 T00441056 10044 21017 58003 $
KCHA 211653Z 01009G16KT 330V030 10SM FEW034 03/M06 A3059 RMK AO2 SLP362 T00331056 $
KCHA 211553Z 02010KT 10SM CLR 02/M06 A3059 RMK AO2 SLP362 T00221056 $
KCHA 211453Z 01009KT 10SM CLR 01/M06 A3058 RMK AO2 SLP358 T00061061 51023 $
KCHA 211353Z 01015KT 10SM CLR M01/M07 A3056 RMK AO2 SLP352 T10061072 $
KCHA 211253Z 36011KT 10SM CLR M02/M06 A3053 RMK AO2 SLP342 I1265 T10171061 $
KCHA 211153Z 35011KT 10SM CLR M02/M06 A3051 RMK AO2 SLP335 70030 T10171061 10022 21017 53016 $
KCHA 211053Z 36012KT 10SM CLR M01/M06 A3048 RMK AO2 SLP326 T10111056 $
KCHA 210953Z 36012KT 10SM CLR M01/M06 A3047 RMK AO2 SLP321 T10061056 $
KCHA 210853Z 36012KT 10SM CLR 00/M04 A3046 RMK AO2 SLP318 T00001044 51008 $
KCHA 210753Z 36014KT 10SM CLR 01/M04 A3046 RMK AO2 SLP318 T00061039 $
KCHA 210653Z 36010KT 10SM CLR 01/M03 A3045 RMK AO2 SLP315 T00111028 $
KCHA 210553Z 36011KT 10SM CLR 02/M02 A3044 RMK AO2 SLP310 T00221022 10044 20017 51005 $
KCHA 210453Z 35009KT 10SM CLR 02/M02 A3043 RMK AO2 SLP310 LAST T00221017 401670022 $
KCHA 210353Z 35010KT 10SM CLR 03/M02 A3042 RMK AO2 SLP304 T00281017 $
KCHA 210253Z 35009KT 10SM FEW080 03/M01 A3042 RMK AO2 SLP303 T00281011 53017 $
KCHA 210153Z 36012G19KT 10SM FEW025 BKN075 OVC090 04/M01 A3040 RMK AO2 SLP297 T00391006 $